sensor_id;sensor_type;location;lat;lon;timestamp;pressure;altitude;pressure_sealevel;temperature;humidity
79589;BME280;69067;51.930;4.492;2024-03-02T00:00:07;99695.75;;;23.20;35.80
79589;BME280;69067;51.930;4.492;2024-03-02T00:02:46;99701.34;;;23.36;34.64
79589;BME280;69067;51.930;4.492;2024-03-02T00:05:18;99696.69;;;23.25;34.56
79589;BME280;69067;51.930;4.492;2024-03-02T00:07:53;99693.28;;;23.30;35.32
79589;BME280;69067;51.930;4.492;2024-03-02T00:10:26;99704.41;;;23.40;35.19
79589;BME280;69067;51.930;4.492;2024-03-02T00:12:57;99702.75;;;23.39;35.18
79589;BME280;69067;51.930;4.492;2024-03-02T00:15:47;99716.41;;;23.21;35.78
79589;BME280;69067;51.930;4.492;2024-03-02T00:18:19;99729.28;;;23.25;35.50
79589;BME280;69067;51.930;4.492;2024-03-02T00:20:47;99728.00;;;23.28;34.86
79589;BME280;69067;51.930;4.492;2024-03-02T00:23:15;99727.63;;;23.24;35.37
79589;BME280;69067;51.930;4.492;2024-03-02T00:25:49;99708.16;;;23.15;35.15
79589;BME280;69067;51.930;4.492;2024-03-02T00:28:31;99716.88;;;23.17;34.81
79589;BME280;69067;51.930;4.492;2024-03-02T00:31:11;99721.03;;;23.20;35.86
79589;BME280;69067;51.930;4.492;2024-03-02T00:33:42;99714.53;;;23.21;35.05
79589;BME280;69067;51.930;4.492;2024-03-02T00:36:11;99697.63;;;23.07;35.08
79589;BME280;69067;51.930;4.492;2024-03-02T00:38:46;99716.53;;;23.14;35.39
79589;BME280;69067;51.930;4.492;2024-03-02T00:46:29;99709.00;;;23.28;35.75
79589;BME280;69067;51.930;4.492;2024-03-02T00:49:03;99708.78;;;23.29;35.34
79589;BME280;69067;51.930;4.492;2024-03-02T00:51:31;99721.75;;;23.27;34.74
79589;BME280;69067;51.930;4.492;2024-03-02T00:54:01;99724.34;;;23.22;35.27
79589;BME280;69067;51.930;4.492;2024-03-02T00:56:30;99716.53;;;23.14;34.71
79589;BME280;69067;51.930;4.492;2024-03-02T00:58:56;99731.16;;;23.13;36.05
79589;BME280;69067;51.930;4.492;2024-03-02T01:01:23;99708.88;;;23.23;35.23
79589;BME280;69067;51.930;4.492;2024-03-02T01:03:49;99718.53;;;23.18;35.99
79589;BME280;69067;51.930;4.492;2024-03-02T01:06:16;99702.13;;;23.25;35.45
79589;BME280;69067;51.930;4.492;2024-03-02T01:08:42;99712.88;;;23.32;35.68
79589;BME280;69067;51.930;4.492;2024-03-02T01:11:08;99703.22;;;23.36;35.47
79589;BME280;69067;51.930;4.492;2024-03-02T01:13:34;99697.66;;;23.31;35.70
79589;BME280;69067;51.930;4.492;2024-03-02T01:16:00;99696.59;;;23.32;35.31
79589;BME280;69067;51.930;4.492;2024-03-02T01:18:26;99719.16;;;23.32;35.44
79589;BME280;69067;51.930;4.492;2024-03-02T01:20:54;99722.47;;;23.34;35.38
79589;BME280;69067;51.930;4.492;2024-03-02T01:23:23;99732.72;;;23.32;35.20
79589;BME280;69067;51.930;4.492;2024-03-02T01:25:53;99726.63;;;23.37;35.23
79589;BME280;69067;51.930;4.492;2024-03-02T01:28:19;99747.97;;;23.33;35.39
79589;BME280;69067;51.930;4.492;2024-03-02T01:30:46;99756.09;;;23.22;35.92
79589;BME280;69067;51.930;4.492;2024-03-02T01:33:12;99754.13;;;23.29;35.37
79589;BME280;69067;51.930;4.492;2024-03-02T01:35:38;99742.19;;;23.30;35.46
79589;BME280;69067;51.930;4.492;2024-03-02T01:38:04;99719.16;;;23.32;35.80
79589;BME280;69067;51.930;4.492;2024-03-02T01:40:37;99737.34;;;23.32;35.97
79589;BME280;69067;51.930;4.492;2024-03-02T01:43:06;99728.22;;;23.26;35.58
79589;BME280;69067;51.930;4.492;2024-03-02T01:45:33;99722.56;;;23.28;35.56
79589;BME280;69067;51.930;4.492;2024-03-02T01:48:00;99726.63;;;23.37;35.78
79589;BME280;69067;51.930;4.492;2024-03-02T01:52:52;99741.72;;;23.33;35.23
79589;BME280;69067;51.930;4.492;2024-03-02T01:55:18;99730.59;;;23.23;36.11
79589;BME280;69067;51.930;4.492;2024-03-02T01:57:44;99738.03;;;23.15;36.08
79589;BME280;69067;51.930;4.492;2024-03-02T02:00:11;99741.66;;;23.09;36.20
79589;BME280;69067;51.930;4.492;2024-03-02T02:02:37;99739.41;;;23.06;35.95
79589;BME280;69067;51.930;4.492;2024-03-02T02:05:03;99732.81;;;23.14;35.92
79589;BME280;69067;51.930;4.492;2024-03-02T02:07:29;99739.19;;;23.20;36.42
79589;BME280;69067;51.930;4.492;2024-03-02T02:09:55;99745.09;;;23.16;36.19
79589;BME280;69067;51.930;4.492;2024-03-02T02:12:21;99748.63;;;23.17;36.31
79589;BME280;69067;51.930;4.492;2024-03-02T02:14:48;99745.91;;;23.17;36.40
79589;BME280;69067;51.930;4.492;2024-03-02T02:17:14;99760.50;;;23.04;36.37
79589;BME280;69067;51.930;4.492;2024-03-02T02:19:41;99756.00;;;22.98;36.90
79589;BME280;69067;51.930;4.492;2024-03-02T02:22:07;99752.53;;;23.09;36.59
79589;BME280;69067;51.930;4.492;2024-03-02T02:24:32;99762.47;;;23.15;36.91
79589;BME280;69067;51.930;4.492;2024-03-02T02:26:58;99756.53;;;23.07;36.50
79589;BME280;69067;51.930;4.492;2024-03-02T02:29:24;99751.78;;;23.02;36.30
79589;BME280;69067;51.930;4.492;2024-03-02T02:31:50;99754.84;;;22.94;37.04
79589;BME280;69067;51.930;4.492;2024-03-02T02:34:16;99754.34;;;22.97;36.59
79589;BME280;69067;51.930;4.492;2024-03-02T02:36:42;99746.38;;;23.02;37.05
79589;BME280;69067;51.930;4.492;2024-03-02T02:39:13;99743.66;;;23.02;36.97
79589;BME280;69067;51.930;4.492;2024-03-02T02:41:40;99743.50;;;22.97;36.91
79589;BME280;69067;51.930;4.492;2024-03-02T02:44:06;99748.88;;;23.15;36.18
79589;BME280;69067;51.930;4.492;2024-03-02T02:46:32;99747.78;;;23.16;36.11
79589;BME280;69067;51.930;4.492;2024-03-02T02:48:57;99748.16;;;23.08;37.26
79589;BME280;69067;51.930;4.492;2024-03-02T02:51:23;99741.66;;;23.09;37.15
79589;BME280;69067;51.930;4.492;2024-03-02T02:53:51;99735.41;;;23.09;36.51
79589;BME280;69067;51.930;4.492;2024-03-02T02:56:17;99744.97;;;23.11;36.57
79589;BME280;69067;51.930;4.492;2024-03-02T02:58:42;99738.22;;;23.02;36.77
79589;BME280;69067;51.930;4.492;2024-03-02T03:01:08;99737.50;;;22.95;37.27
79589;BME280;69067;51.930;4.492;2024-03-02T03:03:34;99744.31;;;22.98;37.24
79589;BME280;69067;51.930;4.492;2024-03-02T03:06:00;99742.97;;;23.18;36.46
79589;BME280;69067;51.930;4.492;2024-03-02T03:08:25;99745.69;;;23.18;36.82
79589;BME280;69067;51.930;4.492;2024-03-02T03:10:51;99750.19;;;23.25;36.47
79589;BME280;69067;51.930;4.492;2024-03-02T03:13:17;99739.41;;;23.06;36.84
79589;BME280;69067;51.930;4.492;2024-03-02T03:15:43;99750.63;;;23.10;36.85
79589;BME280;69067;51.930;4.492;2024-03-02T03:18:08;99758.13;;;22.96;37.00
79589;BME280;69067;51.930;4.492;2024-03-02T03:20:35;99762.06;;;23.00;36.39
79589;BME280;69067;51.930;4.492;2024-03-02T03:23:03;99759.88;;;22.91;37.24
79589;BME280;69067;51.930;4.492;2024-03-02T03:25:30;99757.75;;;22.93;36.41
79589;BME280;69067;51.930;4.492;2024-03-02T03:27:55;99759.53;;;22.87;37.01
79589;BME280;69067;51.930;4.492;2024-03-02T03:30:21;99757.38;;;22.89;36.55
79589;BME280;69067;51.930;4.492;2024-03-02T03:32:47;99767.44;;;22.89;36.86
79589;BME280;69067;51.930;4.492;2024-03-02T03:35:15;99768.19;;;22.77;37.02
79589;BME280;69067;51.930;4.492;2024-03-02T03:37:41;99778.75;;;22.86;36.77
79589;BME280;69067;51.930;4.492;2024-03-02T03:40:07;99768.94;;;22.85;36.84
79589;BME280;69067;51.930;4.492;2024-03-02T03:42:39;99771.44;;;22.86;37.16
79589;BME280;69067;51.930;4.492;2024-03-02T03:45:06;99757.28;;;22.96;36.20
79589;BME280;69067;51.930;4.492;2024-03-02T03:47:32;99775.06;;;23.10;36.21
79589;BME280;69067;51.930;4.492;2024-03-02T03:49:58;99766.25;;;23.26;36.34
79589;BME280;69067;51.930;4.492;2024-03-02T03:52:24;99770.97;;;23.19;36.46
79589;BME280;69067;51.930;4.492;2024-03-02T03:54:50;99772.00;;;23.06;36.31
79589;BME280;69067;51.930;4.492;2024-03-02T03:57:16;99771.91;;;23.25;36.42
79589;BME280;69067;51.930;4.492;2024-03-02T03:59:43;99779.84;;;22.96;36.43
79589;BME280;69067;51.930;4.492;2024-03-02T04:02:09;99775.25;;;22.97;37.13
79589;BME280;69067;51.930;4.492;2024-03-02T04:04:37;99776.34;;;23.07;36.21
79589;BME280;69067;51.930;4.492;2024-03-02T04:07:02;99774.78;;;23.00;36.50
79589;BME280;69067;51.930;4.492;2024-03-02T04:09:28;99783.91;;;23.05;36.08
79589;BME280;69067;51.930;4.492;2024-03-02T04:11:54;99782.56;;;22.96;36.97
79589;BME280;69067;51.930;4.492;2024-03-02T04:14:19;99778.94;;;23.02;36.35
79589;BME280;69067;51.930;4.492;2024-03-02T04:16:45;99779.81;;;22.85;36.77
79589;BME280;69067;51.930;4.492;2024-03-02T04:19:11;99785.22;;;22.85;36.25
79589;BME280;69067;51.930;4.492;2024-03-02T04:21:37;99784.25;;;22.79;37.06
79589;BME280;69067;51.930;4.492;2024-03-02T04:24:03;99784.19;;;22.86;37.34
79589;BME280;69067;51.930;4.492;2024-03-02T04:26:29;99785.44;;;22.83;36.78
79589;BME280;69067;51.930;4.492;2024-03-02T04:28:54;99789.22;;;22.82;36.94
79589;BME280;69067;51.930;4.492;2024-03-02T04:31:21;99783.88;;;22.75;36.72
79589;BME280;69067;51.930;4.492;2024-03-02T04:33:46;99777.63;;;22.75;36.90
79589;BME280;69067;51.930;4.492;2024-03-02T04:36:12;99786.19;;;22.90;37.18
79589;BME280;69067;51.930;4.492;2024-03-02T04:38:38;99784.41;;;22.84;36.99
79589;BME280;69067;51.930;4.492;2024-03-02T04:41:05;99792.44;;;22.91;36.52
79589;BME280;69067;51.930;4.492;2024-03-02T04:43:34;99804.00;;;22.68;36.68
79589;BME280;69067;51.930;4.492;2024-03-02T04:46:01;99802.34;;;22.85;36.22
79589;BME280;69067;51.930;4.492;2024-03-02T04:48:27;99809.69;;;22.96;36.32
79589;BME280;69067;51.930;4.492;2024-03-02T04:50:53;99805.81;;;22.92;36.31
79589;BME280;69067;51.930;4.492;2024-03-02T04:53:19;99802.34;;;22.85;36.37
79589;BME280;69067;51.930;4.492;2024-03-02T04:55:44;99813.66;;;22.82;36.55
79589;BME280;69067;51.930;4.492;2024-03-02T04:58:19;99827.69;;;22.79;36.61
79589;BME280;69067;51.930;4.492;2024-03-02T05:00:45;99809.75;;;22.78;36.18
79589;BME280;69067;51.930;4.492;2024-03-02T05:03:12;99814.88;;;22.68;37.01
79589;BME280;69067;51.930;4.492;2024-03-02T05:05:38;99810.13;;;22.82;36.76
79589;BME280;69067;51.930;4.492;2024-03-02T05:08:04;99817.53;;;22.74;37.15
79589;BME280;69067;51.930;4.492;2024-03-02T05:10:30;99818.94;;;22.77;36.92
79589;BME280;69067;51.930;4.492;2024-03-02T05:12:56;99821.44;;;22.78;36.83
79589;BME280;69067;51.930;4.492;2024-03-02T05:15:22;99820.00;;;22.76;37.00
79589;BME280;69067;51.930;4.492;2024-03-02T05:17:48;99824.88;;;22.86;36.58
79589;BME280;69067;51.930;4.492;2024-03-02T05:20:13;99828.66;;;22.85;37.54
79589;BME280;69067;51.930;4.492;2024-03-02T05:22:39;99815.69;;;22.87;37.03
79589;BME280;69067;51.930;4.492;2024-03-02T05:25:06;99827.16;;;22.89;37.40
79589;BME280;69067;51.930;4.492;2024-03-02T05:27:33;99832.56;;;23.07;36.92
79589;BME280;69067;51.930;4.492;2024-03-02T05:30:02;99839.34;;;22.98;36.79
79589;BME280;69067;51.930;4.492;2024-03-02T05:32:28;99833.31;;;22.96;36.90
79589;BME280;69067;51.930;4.492;2024-03-02T05:34:54;99833.09;;;22.97;36.95
79589;BME280;69067;51.930;4.492;2024-03-02T05:37:20;99835.59;;;22.99;36.45
79589;BME280;69067;51.930;4.492;2024-03-02T05:39:46;99839.88;;;23.06;37.01
79589;BME280;69067;51.930;4.492;2024-03-02T05:42:11;99833.47;;;23.01;36.65
79589;BME280;69067;51.930;4.492;2024-03-02T05:44:37;99839.44;;;22.91;36.30
79589;BME280;69067;51.930;4.492;2024-03-02T05:47:03;99841.53;;;22.89;36.76
79589;BME280;69067;51.930;4.492;2024-03-02T05:49:29;99832.69;;;23.12;36.59
79589;BME280;69067;51.930;4.492;2024-03-02T05:51:55;99838.94;;;23.12;36.19
79589;BME280;69067;51.930;4.492;2024-03-02T05:54:21;99841.53;;;22.89;36.69
79589;BME280;69067;51.930;4.492;2024-03-02T05:56:47;99842.75;;;22.93;37.63
79589;BME280;69067;51.930;4.492;2024-03-02T05:59:13;99845.56;;;22.87;37.02
79589;BME280;69067;51.930;4.492;2024-03-02T06:01:44;99841.53;;;22.89;36.53
79589;BME280;69067;51.930;4.492;2024-03-02T06:04:14;99842.53;;;22.95;37.27
79589;BME280;69067;51.930;4.492;2024-03-02T06:06:40;99834.91;;;22.85;37.43
79589;BME280;69067;51.930;4.492;2024-03-02T06:09:06;99851.34;;;22.90;37.31
79589;BME280;69067;51.930;4.492;2024-03-02T06:11:39;99847.34;;;22.93;36.60
79589;BME280;69067;51.930;4.492;2024-03-02T06:14:07;99848.19;;;22.93;36.59
79589;BME280;69067;51.930;4.492;2024-03-02T06:16:34;99848.13;;;22.82;36.92
79589;BME280;69067;51.930;4.492;2024-03-02T06:19:00;99859.03;;;22.75;37.37
79589;BME280;69067;51.930;4.492;2024-03-02T06:21:29;99852.91;;;22.98;36.57
79589;BME280;69067;51.930;4.492;2024-03-02T06:23:55;99854.66;;;22.92;37.09
79589;BME280;69067;51.930;4.492;2024-03-02T06:26:22;99860.03;;;22.81;37.10
79589;BME280;69067;51.930;4.492;2024-03-02T06:28:47;99864.41;;;22.82;36.67
79589;BME280;69067;51.930;4.492;2024-03-02T06:31:13;99859.03;;;22.75;37.75
79589;BME280;69067;51.930;4.492;2024-03-02T06:33:39;99865.06;;;22.77;36.96
79589;BME280;69067;51.930;4.492;2024-03-02T06:36:07;99868.19;;;22.81;36.75
79589;BME280;69067;51.930;4.492;2024-03-02T06:38:37;99857.53;;;22.79;37.18
79589;BME280;69067;51.930;4.492;2024-03-02T06:41:03;99862.28;;;22.84;36.51
79589;BME280;69067;51.930;4.492;2024-03-02T06:43:28;99860.72;;;22.94;36.32
79589;BME280;69067;51.930;4.492;2024-03-02T06:45:54;99870.66;;;22.82;36.48
79589;BME280;69067;51.930;4.492;2024-03-02T06:48:20;99872.63;;;22.93;36.84
79589;BME280;69067;51.930;4.492;2024-03-02T06:50:50;99877.13;;;22.99;35.76
79589;BME280;69067;51.930;4.492;2024-03-02T06:53:16;99886.72;;;22.84;36.10
79589;BME280;69067;51.930;4.492;2024-03-02T06:55:45;99878.88;;;22.94;36.32
79589;BME280;69067;51.930;4.492;2024-03-02T06:58:13;99882.34;;;22.83;36.99
79589;BME280;69067;51.930;4.492;2024-03-02T07:00:41;99880.91;;;22.80;36.72
79589;BME280;69067;51.930;4.492;2024-03-02T07:03:07;99890.56;;;22.94;36.95
79589;BME280;69067;51.930;4.492;2024-03-02T07:05:35;99891.06;;;23.21;36.08
79589;BME280;69067;51.930;4.492;2024-03-02T07:08:00;99888.97;;;23.05;36.43
79589;BME280;69067;51.930;4.492;2024-03-02T07:10:27;99897.59;;;23.02;36.04
79589;BME280;69067;51.930;4.492;2024-03-02T07:12:53;99896.66;;;23.08;36.61
79589;BME280;69067;51.930;4.492;2024-03-02T07:15:19;99899.38;;;23.08;36.52
79589;BME280;69067;51.930;4.492;2024-03-02T07:18:08;99897.66;;;22.95;36.06
79589;BME280;69067;51.930;4.492;2024-03-02T07:20:34;99896.13;;;23.17;35.87
79589;BME280;69067;51.930;4.492;2024-03-02T07:22:59;99900.97;;;23.15;36.49
79589;BME280;69067;51.930;4.492;2024-03-02T07:25:25;99900.38;;;22.95;37.35
79589;BME280;69067;51.930;4.492;2024-03-02T07:27:51;99901.88;;;22.91;37.03
79589;BME280;69067;51.930;4.492;2024-03-02T07:30:16;99899.75;;;22.93;37.29
79589;BME280;69067;51.930;4.492;2024-03-02T07:32:42;99911.31;;;22.89;37.23
79589;BME280;69067;51.930;4.492;2024-03-02T07:35:13;99909.41;;;22.89;36.99
79589;BME280;69067;51.930;4.492;2024-03-02T07:37:41;99910.91;;;22.85;36.88
79589;BME280;69067;51.930;4.492;2024-03-02T07:40:07;99915.75;;;22.83;37.00
79589;BME280;69067;51.930;4.492;2024-03-02T07:42:38;99914.97;;;22.76;37.59
79589;BME280;69067;51.930;4.492;2024-03-02T07:45:05;99924.19;;;22.93;36.94
79589;BME280;69067;51.930;4.492;2024-03-02T07:47:35;99921.00;;;22.96;37.37
79589;BME280;69067;51.930;4.492;2024-03-02T07:50:01;99916.75;;;22.89;36.84
79589;BME280;69067;51.930;4.492;2024-03-02T07:52:27;99910.69;;;22.87;36.89
79589;BME280;69067;51.930;4.492;2024-03-02T07:54:52;99908.72;;;22.75;36.96
79589;BME280;69067;51.930;4.492;2024-03-02T07:57:19;99911.81;;;22.97;37.03
79589;BME280;69067;51.930;4.492;2024-03-02T07:59:45;99908.34;;;22.90;37.56
79589;BME280;69067;51.930;4.492;2024-03-02T08:02:11;99917.19;;;22.86;37.51
79589;BME280;69067;51.930;4.492;2024-03-02T08:04:38;99915.81;;;22.76;37.53
79589;BME280;69067;51.930;4.492;2024-03-02T08:07:04;99913.13;;;22.70;37.82
79589;BME280;69067;51.930;4.492;2024-03-02T08:09:30;99916.22;;;22.80;37.42
79589;BME280;69067;51.930;4.492;2024-03-02T08:11:55;99915.38;;;22.80;37.00
79589;BME280;69067;51.930;4.492;2024-03-02T08:14:23;99914.97;;;22.76;36.97
79589;BME280;69067;51.930;4.492;2024-03-02T08:16:49;99926.13;;;22.68;37.33
79589;BME280;69067;51.930;4.492;2024-03-02T08:19:15;99922.31;;;22.69;37.35
79589;BME280;69067;51.930;4.492;2024-03-02T08:21:42;99922.53;;;22.74;37.00
79589;BME280;69067;51.930;4.492;2024-03-02T08:24:08;99926.09;;;22.74;37.07
79589;BME280;69067;51.930;4.492;2024-03-02T08:26:34;99928.19;;;22.91;37.65
79589;BME280;69067;51.930;4.492;2024-03-02T08:29:00;99912.19;;;22.83;37.20
79589;BME280;69067;51.930;4.492;2024-03-02T08:31:30;99917.88;;;22.81;37.20
79589;BME280;69067;51.930;4.492;2024-03-02T08:33:56;99910.78;;;22.80;36.98
79589;BME280;69067;51.930;4.492;2024-03-02T08:36:23;99913.84;;;22.84;37.31
79589;BME280;69067;51.930;4.492;2024-03-02T08:38:50;99919.97;;;22.79;37.11
79589;BME280;69067;51.930;4.492;2024-03-02T08:41:16;99909.72;;;22.81;37.18
79589;BME280;69067;51.930;4.492;2024-03-02T08:43:42;99912.59;;;22.86;37.36
79589;BME280;69067;51.930;4.492;2024-03-02T08:46:08;99915.59;;;22.78;37.54
79589;BME280;69067;51.930;4.492;2024-03-02T08:48:36;99920.69;;;22.68;37.50
79589;BME280;69067;51.930;4.492;2024-03-02T08:51:01;99913.50;;;22.80;36.89
79589;BME280;69067;51.930;4.492;2024-03-02T08:53:30;99919.47;;;22.89;36.92
79589;BME280;69067;51.930;4.492;2024-03-02T08:55:55;99910.56;;;22.82;36.66
79589;BME280;69067;51.930;4.492;2024-03-02T08:58:21;99914.53;;;22.79;36.87
79589;BME280;69067;51.930;4.492;2024-03-02T09:00:47;99916.22;;;22.80;37.44
79589;BME280;69067;51.930;4.492;2024-03-02T09:03:13;99915.31;;;22.86;37.06
79589;BME280;69067;51.930;4.492;2024-03-02T09:05:38;99917.50;;;22.71;37.21
79589;BME280;69067;51.930;4.492;2024-03-02T09:08:04;99926.88;;;22.75;37.21
79589;BME280;69067;51.930;4.492;2024-03-02T09:10:30;99931.19;;;22.83;37.19
79589;BME280;69067;51.930;4.492;2024-03-02T09:12:56;99930.91;;;22.91;36.77
79589;BME280;69067;51.930;4.492;2024-03-02T09:15:22;99931.13;;;22.89;36.27
79589;BME280;69067;51.930;4.492;2024-03-02T09:17:48;99932.78;;;22.90;36.75
79589;BME280;69067;51.930;4.492;2024-03-02T09:20:13;99929.59;;;22.75;36.88
79589;BME280;69067;51.930;4.492;2024-03-02T09:22:39;99946.34;;;22.90;36.72
79589;BME280;69067;51.930;4.492;2024-03-02T09:25:05;99933.19;;;22.94;36.26
79589;BME280;69067;51.930;4.492;2024-03-02T09:30:10;99940.16;;;22.83;37.36
79589;BME280;69067;51.930;4.492;2024-03-02T09:32:37;99935.50;;;22.90;36.37
79589;BME280;69067;51.930;4.492;2024-03-02T09:35:03;99933.41;;;22.92;36.61
79589;BME280;69067;51.930;4.492;2024-03-02T09:37:29;99934.97;;;23.00;36.55
79589;BME280;69067;51.930;4.492;2024-03-02T09:39:55;99933.53;;;22.97;36.96
79589;BME280;69067;51.930;4.492;2024-03-02T09:42:21;99937.44;;;22.83;36.97
79589;BME280;69067;51.930;4.492;2024-03-02T09:44:48;99941.28;;;22.75;37.57
79589;BME280;69067;51.930;4.492;2024-03-02T09:47:14;99949.91;;;22.91;37.24
79589;BME280;69067;51.930;4.492;2024-03-02T09:49:40;99956.03;;;23.04;36.66
79589;BME280;69067;51.930;4.492;2024-03-02T09:52:06;99946.28;;;22.97;37.17
79589;BME280;69067;51.930;4.492;2024-03-02T09:54:32;99951.50;;;22.98;36.90
79589;BME280;69067;51.930;4.492;2024-03-02T09:56:58;99964.63;;;23.01;37.01
79589;BME280;69067;51.930;4.492;2024-03-02T09:59:24;99968.00;;;22.97;36.50
79589;BME280;69067;51.930;4.492;2024-03-02T10:02:00;99960.84;;;23.21;36.78
79589;BME280;69067;51.930;4.492;2024-03-02T10:04:28;99968.38;;;23.18;36.29
79589;BME280;69067;51.930;4.492;2024-03-02T10:07:15;99955.88;;;23.17;37.27
79589;BME280;69067;51.930;4.492;2024-03-02T10:09:43;99960.03;;;23.20;36.80
79589;BME280;69067;51.930;4.492;2024-03-02T10:12:14;99957.31;;;23.20;36.59
79589;BME280;69067;51.930;4.492;2024-03-02T10:14:42;99946.44;;;23.20;37.06
79589;BME280;69067;51.930;4.492;2024-03-02T10:17:13;99935.94;;;23.24;36.47
79589;BME280;69067;51.930;4.492;2024-03-02T10:19:41;99929.44;;;23.25;35.79
79589;BME280;69067;51.930;4.492;2024-03-02T10:22:09;99931.94;;;23.26;35.99
79589;BME280;69067;51.930;4.492;2024-03-02T10:24:40;99916.47;;;23.27;35.55
79589;BME280;69067;51.930;4.492;2024-03-02T10:27:08;99920.03;;;23.27;36.01
79589;BME280;69067;51.930;4.492;2024-03-02T10:29:41;99918.16;;;23.28;35.09
79589;BME280;69067;51.930;4.492;2024-03-02T10:32:10;99933.16;;;23.30;35.05
79589;BME280;69067;51.930;4.492;2024-03-02T10:34:39;99930.66;;;23.29;35.38
79589;BME280;69067;51.930;4.492;2024-03-02T10:37:06;99938.81;;;23.29;35.80
79589;BME280;69067;51.930;4.492;2024-03-02T10:39:35;99931.03;;;23.32;35.73
79589;BME280;69067;51.930;4.492;2024-03-02T10:42:06;99922.31;;;23.30;34.97
79589;BME280;69067;51.930;4.492;2024-03-02T10:44:33;99914.72;;;23.32;35.11
79589;BME280;69067;51.930;4.492;2024-03-02T10:47:03;99896.19;;;23.29;35.42
79589;BME280;69067;51.930;4.492;2024-03-02T10:49:32;99906.81;;;23.31;35.61
79589;BME280;69067;51.930;4.492;2024-03-02T10:51:58;99912.84;;;23.33;35.66
79589;BME280;69067;51.930;4.492;2024-03-02T10:54:25;99913.91;;;23.32;35.30
79589;BME280;69067;51.930;4.492;2024-03-02T10:56:53;99932.56;;;23.28;34.60
79589;BME280;69067;51.930;4.492;2024-03-02T10:59:35;99916.25;;;23.28;35.50
79589;BME280;69067;51.930;4.492;2024-03-02T11:02:03;99904.78;;;23.26;35.49
79589;BME280;69067;51.930;4.492;2024-03-02T11:04:31;99911.03;;;23.27;35.37
79589;BME280;69067;51.930;4.492;2024-03-02T11:07:06;99916.94;;;23.24;35.03
79589;BME280;69067;51.930;4.492;2024-03-02T11:09:34;99920.72;;;23.23;34.73
79589;BME280;69067;51.930;4.492;2024-03-02T11:12:19;99921.09;;;23.26;35.07
79589;BME280;69067;51.930;4.492;2024-03-02T11:14:51;99918.84;;;23.23;35.39
79589;BME280;69067;51.930;4.492;2024-03-02T11:17:19;99909.88;;;23.23;34.57
79589;BME280;69067;51.930;4.492;2024-03-02T11:19:47;99907.97;;;23.23;35.24
79589;BME280;69067;51.930;4.492;2024-03-02T11:22:15;99916.13;;;23.23;34.94
79589;BME280;69067;51.930;4.492;2024-03-02T11:24:48;99910.44;;;23.25;35.16
79589;BME280;69067;51.930;4.492;2024-03-02T11:33:01;99898.53;;;23.26;35.30
79589;BME280;69067;51.930;4.492;2024-03-02T11:35:41;99899.56;;;23.25;34.89
79589;BME280;69067;51.930;4.492;2024-03-02T11:38:14;99894.75;;;23.27;35.67
79589;BME280;69067;51.930;4.492;2024-03-02T11:40:40;99884.94;;;23.26;35.10
79589;BME280;69067;51.930;4.492;2024-03-02T11:43:07;99875.38;;;23.23;35.70
79589;BME280;69067;51.930;4.492;2024-03-02T11:45:37;99878.91;;;23.24;35.16
79589;BME280;69067;51.930;4.492;2024-03-02T11:48:08;99879.38;;;23.21;35.35
79589;BME280;69067;51.930;4.492;2024-03-02T11:50:47;99875.97;;;23.25;34.84
79589;BME280;69067;51.930;4.492;2024-03-02T11:53:15;99873.72;;;23.22;34.77
79589;BME280;69067;51.930;4.492;2024-03-02T11:55:42;99869.69;;;23.25;35.21
79589;BME280;69067;51.930;4.492;2024-03-02T11:58:12;99870.09;;;23.28;35.36
79589;BME280;69067;51.930;4.492;2024-03-02T12:00:39;99865.31;;;23.24;34.84
79589;BME280;69067;51.930;4.492;2024-03-02T12:03:06;99870.53;;;23.25;35.18
79589;BME280;69067;51.930;4.492;2024-03-02T12:05:35;99859.75;;;23.18;35.45
79589;BME280;69067;51.930;4.492;2024-03-02T12:08:04;99851.81;;;23.17;35.47
79589;BME280;69067;51.930;4.492;2024-03-02T12:10:35;99868.03;;;23.24;34.94
79589;BME280;69067;51.930;4.492;2024-03-02T12:13:06;99858.69;;;23.20;35.48
79589;BME280;69067;51.930;4.492;2024-03-02T12:15:35;99862.25;;;23.20;35.60
79589;BME280;69067;51.930;4.492;2024-03-02T12:18:04;99834.47;;;23.18;35.26
79589;BME280;69067;51.930;4.492;2024-03-02T12:20:33;99843.84;;;23.22;35.52
79589;BME280;69067;51.930;4.492;2024-03-02T12:23:01;99836.38;;;23.17;34.94
79589;BME280;69067;51.930;4.492;2024-03-02T12:25:30;99838.41;;;23.22;34.64
79589;BME280;69067;51.930;4.492;2024-03-02T12:27:58;99831.53;;;23.20;35.43
79589;BME280;69067;51.930;4.492;2024-03-02T12:30:29;99843.84;;;23.22;34.50
79589;BME280;69067;51.930;4.492;2024-03-02T12:32:56;99835.91;;;23.21;34.78
79589;BME280;69067;51.930;4.492;2024-03-02T12:35:21;99842.19;;;23.21;34.08
79589;BME280;69067;51.930;4.492;2024-03-02T12:37:49;99839.69;;;23.20;34.56
79589;BME280;69067;51.930;4.492;2024-03-02T12:40:18;99837.59;;;23.22;35.21
79589;BME280;69067;51.930;4.492;2024-03-02T12:42:46;99838.84;;;23.19;34.75
79589;BME280;69067;51.930;4.492;2024-03-02T12:45:13;99845.13;;;23.20;34.65
79589;BME280;69067;51.930;4.492;2024-03-02T12:47:40;99832.25;;;23.15;35.13
79589;BME280;69067;51.930;4.492;2024-03-02T12:50:08;99834.03;;;23.21;35.48
79589;BME280;69067;51.930;4.492;2024-03-02T12:52:34;99832.72;;;23.24;34.29
79589;BME280;69067;51.930;4.492;2024-03-02T12:55:04;99817.59;;;23.16;34.66
79589;BME280;69067;51.930;4.492;2024-03-02T12:57:31;99815.63;;;23.23;34.48
79589;BME280;69067;51.930;4.492;2024-03-02T13:00:07;99815.84;;;23.22;34.67
79589;BME280;69067;51.930;4.492;2024-03-02T13:02:39;99818.56;;;23.22;35.08
79589;BME280;69067;51.930;4.492;2024-03-02T13:05:07;99810.25;;;23.16;35.08
79589;BME280;69067;51.930;4.492;2024-03-02T13:07:37;99811.25;;;23.22;34.27
79589;BME280;69067;51.930;4.492;2024-03-02T13:10:06;99803.78;;;23.17;34.57
79589;BME280;69067;51.930;4.492;2024-03-02T13:12:35;99810.88;;;23.18;34.79
79589;BME280;69067;51.930;4.492;2024-03-02T13:15:03;99806.25;;;23.19;34.85
79589;BME280;69067;51.930;4.492;2024-03-02T13:17:30;99808.97;;;23.19;34.63